createdAt,value
2023-04-19T00:02:14.157Z,99.20
2023-04-19T00:04:41.941Z,99.30
2023-04-19T00:07:09.076Z,99.30
2023-04-19T00:09:36.164Z,99.30
2023-04-19T00:12:03.846Z,99.40
2023-04-19T00:14:30.954Z,99.40
2023-04-19T00:16:58.093Z,99.40
2023-04-19T00:19:26.083Z,99.50
2023-04-19T00:21:53.217Z,99.70
2023-04-19T00:24:20.495Z,99.90
2023-04-19T00:26:47.686Z,99.90
2023-04-19T00:29:14.782Z,99.90
2023-04-19T00:31:42.027Z,99.90
2023-04-19T00:34:09.167Z,99.90
2023-04-19T00:36:36.336Z,99.90
2023-04-19T00:39:03.724Z,99.90
2023-04-19T00:41:30.964Z,99.90
2023-04-19T00:43:58.046Z,99.90
2023-04-19T00:46:26.062Z,99.90
2023-04-19T00:48:54.013Z,99.90
2023-04-19T00:51:21.190Z,99.90
2023-04-19T00:53:48.987Z,99.90
2023-04-19T00:56:22.128Z,99.90
2023-04-19T00:58:49.535Z,99.90
2023-04-19T01:01:16.907Z,99.90
2023-04-19T01:03:46.188Z,99.90
2023-04-19T01:06:13.589Z,99.90
2023-04-19T01:08:42.404Z,99.90
2023-04-19T01:11:09.551Z,99.90
2023-04-19T01:13:37.430Z,99.90
2023-04-19T01:16:05.646Z,99.90
2023-04-19T01:18:37.456Z,99.90
2023-04-19T01:21:06.014Z,99.90
2023-04-19T01:23:33.289Z,99.90
2023-04-19T01:26:02.563Z,99.90
2023-04-19T01:28:29.675Z,99.90
2023-04-19T01:30:56.889Z,99.90
2023-04-19T01:33:26.758Z,99.90
2023-04-19T01:35:54.026Z,99.90
2023-04-19T01:38:21.203Z,99.90
2023-04-19T01:40:48.373Z,99.90
2023-04-19T01:43:17.763Z,99.90
2023-04-19T01:45:45.642Z,99.90
2023-04-19T01:48:12.880Z,99.90
2023-04-19T01:50:40.058Z,99.90
2023-04-19T01:53:07.215Z,99.90
2023-04-19T01:55:34.341Z,99.90
2023-04-19T01:58:01.470Z,99.90
2023-04-19T02:00:29.272Z,99.90
2023-04-19T02:02:56.588Z,99.90
2023-04-19T02:05:23.768Z,99.90
2023-04-19T02:07:51.027Z,99.90
2023-04-19T02:10:18.098Z,99.90
2023-04-19T02:12:45.731Z,99.90
2023-04-19T02:15:12.938Z,99.90
2023-04-19T02:17:40.651Z,99.90
2023-04-19T02:20:09.196Z,99.90
2023-04-19T02:22:36.435Z,99.90
2023-04-19T02:25:04.549Z,99.90
2023-04-19T02:27:31.662Z,99.90
2023-04-19T02:29:58.842Z,99.90
2023-04-19T02:32:26.008Z,99.90
2023-04-19T02:34:53.118Z,99.90
2023-04-19T02:37:20.377Z,99.90
2023-04-19T02:39:47.576Z,99.90
2023-04-19T02:42:14.711Z,99.90
2023-04-19T02:44:41.836Z,99.90
2023-04-19T02:47:09.475Z,99.90
2023-04-19T02:49:37.963Z,99.90
2023-04-19T02:52:05.467Z,99.90
2023-04-19T02:54:34.754Z,99.90
2023-04-19T02:57:02.070Z,99.90
2023-04-19T02:59:29.254Z,99.90
2023-04-19T03:01:59.822Z,99.90
2023-04-19T03:04:28.991Z,99.90
2023-04-19T03:06:56.127Z,99.90
2023-04-19T03:09:23.736Z,99.90
2023-04-19T03:11:51.240Z,99.90
2023-04-19T03:14:18.597Z,99.90
2023-04-19T03:16:45.662Z,99.90
2023-04-19T03:19:13.335Z,99.90
2023-04-19T03:21:47.037Z,99.90
2023-04-19T03:24:14.492Z,99.90
2023-04-19T03:26:48.001Z,99.90
2023-04-19T03:29:17.535Z,99.90
2023-04-19T03:31:52.654Z,99.90
2023-04-19T03:34:20.055Z,99.90
2023-04-19T03:36:49.081Z,99.90
2023-04-19T03:39:16.179Z,99.90
2023-04-19T03:41:46.736Z,99.90
2023-04-19T03:44:20.851Z,99.90
2023-04-19T03:46:48.891Z,99.90
2023-04-19T03:49:19.931Z,99.90
2023-04-19T03:51:52.515Z,99.90
2023-04-19T03:54:19.702Z,99.90
2023-04-19T03:56:47.791Z,99.90
2023-04-19T03:59:15.580Z,99.90
2023-04-19T04:01:43.514Z,99.90
2023-04-19T04:04:12.191Z,99.90
2023-04-19T04:06:40.149Z,99.90
2023-04-19T04:09:07.687Z,99.90
2023-04-19T04:11:35.199Z,99.90
2023-04-19T04:14:06.030Z,99.90
2023-04-19T04:16:36.593Z,99.90
2023-04-19T04:19:03.770Z,99.90
2023-04-19T04:21:33.928Z,99.90
2023-04-19T04:24:03.833Z,99.90
2023-04-19T04:26:39.449Z,99.90
2023-04-19T04:29:20.542Z,99.90
2023-04-19T04:31:49.482Z,99.90
2023-04-19T04:34:19.132Z,99.90
2023-04-19T04:36:52.101Z,99.90
2023-04-19T04:39:21.321Z,99.90
2023-04-19T04:41:50.027Z,99.90
2023-04-19T04:44:17.381Z,99.90
2023-04-19T04:46:46.628Z,99.90
2023-04-19T04:49:18.908Z,99.90
2023-04-19T04:51:46.126Z,99.90
2023-04-19T04:54:14.229Z,99.90
2023-04-19T04:56:42.005Z,99.90
2023-04-19T04:59:11.308Z,99.90
2023-04-19T05:01:43.751Z,99.90
2023-04-19T05:04:11.578Z,99.90
2023-04-19T05:06:41.108Z,99.90
2023-04-19T05:09:10.949Z,99.90
2023-04-19T05:11:38.470Z,99.90
2023-04-19T05:14:06.005Z,99.90
2023-04-19T05:16:34.364Z,99.90
2023-04-19T05:19:02.889Z,99.90
2023-04-19T05:21:34.867Z,99.90
2023-04-19T05:24:04.964Z,99.90
2023-04-19T05:26:33.906Z,99.90
2023-04-19T05:29:02.494Z,99.90
2023-04-19T05:31:40.077Z,99.90
2023-04-19T05:34:19.750Z,99.90
2023-04-19T05:36:49.014Z,99.90
2023-04-19T05:39:17.068Z,99.80
2023-04-19T05:41:44.222Z,98.90
2023-04-19T05:44:11.358Z,98.10
2023-04-19T05:46:38.590Z,97.80
2023-04-19T05:49:09.621Z,97.50
2023-04-19T05:52:00.566Z,97.30
2023-04-19T05:54:36.177Z,96.10
2023-04-19T05:57:04.761Z,95.40
2023-04-19T05:59:32.201Z,94.90
2023-04-19T06:02:01.388Z,94.50
2023-04-19T06:04:28.995Z,94.50
2023-04-19T06:06:56.533Z,93.90
2023-04-19T06:09:23.922Z,93.70
2023-04-19T06:11:51.810Z,93.40
2023-04-19T06:14:19.728Z,93.10
2023-04-19T06:16:47.513Z,92.90
2023-04-19T06:19:14.953Z,92.50
2023-04-19T06:21:42.088Z,92.20
2023-04-19T06:24:09.359Z,92.20
2023-04-19T06:26:36.769Z,91.80
2023-04-19T06:29:04.437Z,91.80
2023-04-19T06:31:32.705Z,91.00
2023-04-19T06:34:00.842Z,90.90
2023-04-19T06:36:29.157Z,91.00
2023-04-19T06:38:56.763Z,90.70
2023-04-19T06:41:24.152Z,90.40
2023-04-19T06:43:51.737Z,89.80
2023-04-19T06:46:19.229Z,88.40
2023-04-19T06:48:46.669Z,89.40
2023-04-19T06:51:14.070Z,88.50
2023-04-19T06:53:41.818Z,88.60
2023-04-19T06:56:10.292Z,87.60
2023-04-19T06:58:37.777Z,87.20
2023-04-19T07:01:05.495Z,86.70
2023-04-19T07:03:33.884Z,86.10
2023-04-19T07:06:01.523Z,85.50
2023-04-19T07:08:42.309Z,84.50
2023-04-19T07:11:16.447Z,84.90
2023-04-19T07:13:43.893Z,84.50
2023-04-19T07:16:11.586Z,83.60
2023-04-19T07:18:39.000Z,83.50
2023-04-19T07:21:06.472Z,83.00
2023-04-19T07:23:34.041Z,81.60
2023-04-19T07:26:01.513Z,81.30
2023-04-19T07:28:32.098Z,81.10
2023-04-19T07:31:01.011Z,80.40
2023-04-19T07:33:28.657Z,79.90
2023-04-19T07:35:56.728Z,79.30
2023-04-19T07:38:25.442Z,77.40
2023-04-19T07:40:52.867Z,78.80
2023-04-19T07:43:20.376Z,77.20
2023-04-19T07:45:47.816Z,76.90
2023-04-19T07:48:15.378Z,76.90
2023-04-19T07:50:42.903Z,75.80
2023-04-19T07:53:10.743Z,74.50
2023-04-19T07:55:38.477Z,74.80
2023-04-19T07:58:06.395Z,74.80
2023-04-19T08:00:36.757Z,74.10
2023-04-19T08:03:04.650Z,72.70
2023-04-19T08:05:32.946Z,72.90
2023-04-19T08:08:00.666Z,71.70
2023-04-19T08:10:30.440Z,73.60
2023-04-19T08:13:05.864Z,72.00
2023-04-19T08:18:06.163Z,71.30
2023-04-19T08:20:34.161Z,71.30
2023-04-19T08:23:10.523Z,72.50
2023-04-19T08:25:41.813Z,71.70
2023-04-19T08:28:09.353Z,69.50
2023-04-19T08:30:36.696Z,69.50
2023-04-19T08:33:04.236Z,69.10
2023-04-19T08:35:31.691Z,68.10
2023-04-19T08:37:59.113Z,67.80
2023-04-19T08:40:26.451Z,65.20
2023-04-19T08:42:53.944Z,64.10
2023-04-19T08:45:28.241Z,67.10
2023-04-19T08:48:01.187Z,67.10
2023-04-19T08:50:35.790Z,66.30
2023-04-19T08:53:24.172Z,64.20
2023-04-19T08:58:44.518Z,61.20
2023-04-19T09:01:33.887Z,60.10
2023-04-19T09:06:41.139Z,59.20
2023-04-19T09:11:54.782Z,59.00
2023-04-19T09:14:23.252Z,59.00
2023-04-19T09:16:52.311Z,58.60
2023-04-19T09:19:24.896Z,58.10
2023-04-19T09:21:54.813Z,57.70
2023-04-19T09:27:12.155Z,58.10
2023-04-19T09:29:39.814Z,57.40
2023-04-19T09:32:07.458Z,57.40
2023-04-19T09:34:34.880Z,56.50
2023-04-19T09:37:28.073Z,57.70
2023-04-19T09:40:23.206Z,57.10
2023-04-19T09:45:29.708Z,57.80
2023-04-19T09:48:07.732Z,57.00
2023-04-19T09:50:50.537Z,56.30
2023-04-19T09:53:24.803Z,55.50
2023-04-19T09:56:01.183Z,55.30
2023-04-19T09:58:41.587Z,54.90
2023-04-19T10:01:19.307Z,54.20
2023-04-19T10:03:50.367Z,53.70
2023-04-19T10:08:51.432Z,54.30
2023-04-19T10:11:26.797Z,53.80
2023-04-19T10:14:00.431Z,53.00
2023-04-19T10:16:28.599Z,53.10
2023-04-19T10:18:57.277Z,52.90
2023-04-19T10:21:28.089Z,53.00
2023-04-19T10:23:57.556Z,52.20
2023-04-19T10:26:25.158Z,51.60
2023-04-19T10:28:56.460Z,49.20
2023-04-19T10:31:26.880Z,49.70
2023-04-19T10:33:55.454Z,49.70
2023-04-19T10:36:27.548Z,50.20
2023-04-19T10:38:55.776Z,50.00
2023-04-19T10:41:23.353Z,48.50
2023-04-19T10:43:57.729Z,48.60
2023-04-19T10:46:26.184Z,49.30
2023-04-19T10:48:58.413Z,50.60
2023-04-19T10:51:36.625Z,50.90
2023-04-19T10:54:09.860Z,52.00
2023-04-19T10:56:38.153Z,53.90
2023-04-19T10:59:08.151Z,53.80
2023-04-19T11:01:40.669Z,53.90
2023-04-19T11:04:11.614Z,51.50
2023-04-19T11:07:03.617Z,51.10
2023-04-19T11:09:45.977Z,50.00
2023-04-19T11:12:16.352Z,49.90
2023-04-19T11:14:46.402Z,49.30
2023-04-19T11:17:27.938Z,51.50
2023-04-19T11:20:02.206Z,52.50
2023-04-19T11:22:41.288Z,52.20
2023-04-19T11:25:12.166Z,52.90
2023-04-19T11:27:41.571Z,52.30
2023-04-19T11:30:19.674Z,50.40
2023-04-19T11:32:53.228Z,49.80
2023-04-19T11:35:30.596Z,49.50
2023-04-19T11:37:59.523Z,48.80
2023-04-19T11:40:27.676Z,48.40
2023-04-19T11:43:01.060Z,46.00
2023-04-19T11:45:38.262Z,45.40
2023-04-19T11:48:15.686Z,45.20
2023-04-19T11:50:45.197Z,45.50
2023-04-19T11:53:19.151Z,45.30
2023-04-19T11:55:52.530Z,44.90
2023-04-19T11:58:36.219Z,44.70
2023-04-19T12:01:14.430Z,44.00
2023-04-19T12:03:56.716Z,43.30
2023-04-19T12:06:27.783Z,43.10
2023-04-19T12:08:56.876Z,42.60
2023-04-19T12:11:27.257Z,43.00
2023-04-19T12:14:11.238Z,42.80
2023-04-19T12:16:38.979Z,41.90
2023-04-19T12:19:14.359Z,41.00
2023-04-19T12:21:42.264Z,41.50
2023-04-19T12:24:10.435Z,42.20
2023-04-19T12:26:54.586Z,42.20
2023-04-19T12:29:23.519Z,39.70
2023-04-19T12:31:51.267Z,39.80
2023-04-19T12:34:18.834Z,39.70
2023-04-19T12:36:46.066Z,39.60
2023-04-19T12:39:13.916Z,38.90
2023-04-19T12:41:41.393Z,38.70
2023-04-19T12:44:08.840Z,38.10
2023-04-19T12:46:36.932Z,38.80
2023-04-19T12:49:04.247Z,39.00
2023-04-19T12:51:31.928Z,40.00
2023-04-19T12:53:59.911Z,40.40
2023-04-19T12:56:27.249Z,39.50
2023-04-19T12:58:54.545Z,38.80
2023-04-19T13:01:21.978Z,38.60
2023-04-19T13:03:49.518Z,38.60
2023-04-19T13:06:17.345Z,40.50
2023-04-19T13:08:47.154Z,38.90
2023-04-19T13:11:16.178Z,39.70
2023-04-19T13:13:43.526Z,39.10
2023-04-19T13:16:11.077Z,39.80
2023-04-19T13:18:38.392Z,38.50
2023-04-19T13:21:08.070Z,37.40
2023-04-19T13:23:35.945Z,38.60
2023-04-19T13:26:03.578Z,38.00
2023-04-19T13:28:31.088Z,39.00
2023-04-19T13:30:58.342Z,38.90
2023-04-19T13:33:26.986Z,37.00
2023-04-19T13:35:54.267Z,37.00
2023-04-19T13:38:21.431Z,37.50
2023-04-19T13:40:48.583Z,37.70
2023-04-19T13:43:15.794Z,38.00
2023-04-19T13:45:42.932Z,39.50
2023-04-19T13:48:10.099Z,39.50
2023-04-19T13:50:37.350Z,41.40
2023-04-19T13:53:04.602Z,40.50
2023-04-19T13:55:32.048Z,40.10
2023-04-19T13:57:59.511Z,39.40
2023-04-19T14:00:27.093Z,39.20
2023-04-19T14:02:56.766Z,39.30
2023-04-19T14:05:24.149Z,39.60
2023-04-19T14:07:52.365Z,40.80
2023-04-19T14:10:19.762Z,41.10
2023-04-19T14:12:47.489Z,41.00
2023-04-19T14:15:14.827Z,42.00
2023-04-19T14:17:42.049Z,41.60
2023-04-19T14:20:09.613Z,42.00
2023-04-19T14:22:37.008Z,42.00
2023-04-19T14:25:04.725Z,42.70
2023-04-19T14:27:32.473Z,42.50
2023-04-19T14:29:59.664Z,42.50
2023-04-19T14:32:27.427Z,43.10
2023-04-19T14:34:56.158Z,42.00
2023-04-19T14:37:24.669Z,42.80
2023-04-19T14:39:52.722Z,43.40
2023-04-19T14:42:22.610Z,42.20
2023-04-19T14:44:53.113Z,42.40
2023-04-19T14:47:21.227Z,42.50
2023-04-19T14:49:48.537Z,43.10
2023-04-19T14:52:16.870Z,43.10
2023-04-19T14:54:44.266Z,43.60
2023-04-19T14:57:12.131Z,43.70
2023-04-19T14:59:39.327Z,45.00
2023-04-19T15:02:06.565Z,43.30
2023-04-19T15:04:41.370Z,43.90
2023-04-19T15:07:28.497Z,43.20
2023-04-19T15:09:55.719Z,43.00
2023-04-19T15:12:22.883Z,43.20
2023-04-19T15:14:50.082Z,43.90
2023-04-19T15:17:17.193Z,44.30
2023-04-19T15:19:46.883Z,45.00
2023-04-19T15:22:16.622Z,45.00
2023-04-19T15:24:44.028Z,45.50
2023-04-19T15:27:11.132Z,45.70
2023-04-19T15:29:39.458Z,45.70
2023-04-19T15:32:06.844Z,46.10
2023-04-19T15:34:34.037Z,47.00
2023-04-19T15:37:02.266Z,47.90
2023-04-19T15:39:29.414Z,48.10
2023-04-19T15:42:03.193Z,48.50
2023-04-19T15:44:30.374Z,48.10
2023-04-19T15:46:57.666Z,49.10
2023-04-19T15:49:29.116Z,49.60
2023-04-19T15:51:59.718Z,49.40
2023-04-19T15:54:28.740Z,50.20
2023-04-19T15:56:57.511Z,50.40
2023-04-19T15:59:26.713Z,50.90
2023-04-19T16:01:54.101Z,50.70
2023-04-19T16:04:21.840Z,51.10
2023-04-19T16:06:49.162Z,51.50
2023-04-19T16:09:19.528Z,51.50
2023-04-19T16:11:46.755Z,51.70
2023-04-19T16:14:14.001Z,52.10
2023-04-19T16:16:41.292Z,52.00
2023-04-19T16:19:08.472Z,52.40
2023-04-19T16:21:35.645Z,53.30
2023-04-19T16:24:03.067Z,53.40
2023-04-19T16:26:30.269Z,53.70
2023-04-19T16:28:59.117Z,54.50
2023-04-19T16:31:26.557Z,55.00
2023-04-19T16:33:53.751Z,55.90
2023-04-19T16:36:20.913Z,56.20
2023-04-19T16:38:48.133Z,56.50
2023-04-19T16:41:15.272Z,56.00
2023-04-19T16:43:42.381Z,55.70
2023-04-19T16:46:09.791Z,56.10
2023-04-19T16:48:37.074Z,56.00
2023-04-19T16:51:04.356Z,55.50
2023-04-19T16:53:32.197Z,55.70
2023-04-19T16:56:00.249Z,55.30
2023-04-19T16:58:27.376Z,54.90
2023-04-19T17:00:55.068Z,55.10
2023-04-19T17:03:22.504Z,55.50
2023-04-19T17:05:49.849Z,55.40
2023-04-19T17:08:17.032Z,55.00
2023-04-19T17:10:44.290Z,56.50
2023-04-19T17:13:11.441Z,55.40
2023-04-19T17:15:39.030Z,55.60
2023-04-19T17:18:06.664Z,55.30
2023-04-19T17:20:33.913Z,55.00
2023-04-19T17:23:01.092Z,55.20
2023-04-19T17:25:28.332Z,55.30
2023-04-19T17:27:55.608Z,54.90
2023-04-19T17:30:22.876Z,54.50
2023-04-19T17:32:51.174Z,55.00
2023-04-19T17:35:18.573Z,55.20
2023-04-19T17:37:46.072Z,54.30
2023-04-19T17:40:13.362Z,54.80
2023-04-19T17:42:40.629Z,54.50
2023-04-19T17:45:11.042Z,55.00
2023-04-19T17:47:39.413Z,55.20
2023-04-19T17:50:13.044Z,55.00
2023-04-19T17:52:40.405Z,54.10
2023-04-19T17:55:08.229Z,54.50
2023-04-19T17:57:35.722Z,55.20
2023-04-19T18:00:06.868Z,55.40
2023-04-19T18:02:36.494Z,55.10
2023-04-19T18:05:04.400Z,55.50
2023-04-19T18:07:31.646Z,55.60
2023-04-19T18:09:58.753Z,54.90
2023-04-19T18:12:25.989Z,55.20
2023-04-19T18:14:53.585Z,55.00
2023-04-19T18:17:21.529Z,55.90
2023-04-19T18:19:48.713Z,57.00
2023-04-19T18:22:15.987Z,58.90
2023-04-19T18:24:46.043Z,64.40
2023-04-19T18:27:13.992Z,70.50
2023-04-19T18:29:41.309Z,80.20
2023-04-19T18:32:08.586Z,83.10
2023-04-19T18:34:36.076Z,85.50
2023-04-19T18:37:16.749Z,89.10
2023-04-19T18:39:44.438Z,90.70
2023-04-19T18:42:12.229Z,91.50
2023-04-19T18:44:52.959Z,91.90
2023-04-19T18:47:22.446Z,91.60
2023-04-19T18:50:03.692Z,91.30
2023-04-19T18:52:36.437Z,90.60
2023-04-19T18:55:06.179Z,91.00
2023-04-19T18:57:35.106Z,91.00
2023-04-19T19:00:09.737Z,91.30
2023-04-19T19:02:40.457Z,91.20
2023-04-19T19:05:09.134Z,92.30
2023-04-19T19:07:37.963Z,92.60
2023-04-19T19:10:18.295Z,90.90
2023-04-19T19:12:48.281Z,90.30
2023-04-19T19:15:15.791Z,90.40
2023-04-19T19:17:43.655Z,87.90
2023-04-19T19:20:11.501Z,89.10
2023-04-19T19:22:38.851Z,89.00
2023-04-19T19:25:06.988Z,88.60
2023-04-19T19:27:35.436Z,92.70
2023-04-19T19:30:03.695Z,93.60
2023-04-19T19:32:33.330Z,93.90
2023-04-19T19:35:05.570Z,93.80
2023-04-19T19:37:39.299Z,93.40
2023-04-19T19:40:11.169Z,91.60
2023-04-19T19:42:42.284Z,90.40
2023-04-19T19:45:11.173Z,88.00
2023-04-19T19:47:45.273Z,89.80
2023-04-19T19:52:49.277Z,89.00
2023-04-19T19:55:18.170Z,90.80
2023-04-19T20:00:39.979Z,88.90
2023-04-19T20:03:08.057Z,88.20
2023-04-19T20:05:36.514Z,87.70
2023-04-19T20:08:16.851Z,83.70
2023-04-19T20:10:44.582Z,81.90
2023-04-19T20:13:15.943Z,80.60
2023-04-19T20:15:47.527Z,81.80
2023-04-19T20:18:19.198Z,81.50
2023-04-19T20:20:46.975Z,80.80
2023-04-19T20:23:18.236Z,80.80
2023-04-19T20:25:50.947Z,80.50
2023-04-19T20:28:21.031Z,80.30
2023-04-19T20:30:51.664Z,80.60
2023-04-19T20:33:20.165Z,81.00
2023-04-19T20:35:49.424Z,81.60
2023-04-19T20:38:29.518Z,81.60
2023-04-19T20:40:57.337Z,82.00
2023-04-19T20:43:25.063Z,81.50
2023-04-19T20:45:52.794Z,81.30
2023-04-19T20:48:20.837Z,81.30
2023-04-19T20:50:48.360Z,80.50
2023-04-19T20:53:15.782Z,80.20
2023-04-19T20:55:44.232Z,80.30
2023-04-19T20:58:12.161Z,80.40
2023-04-19T21:00:39.656Z,80.00
2023-04-19T21:03:10.017Z,80.30
2023-04-19T21:05:39.761Z,80.50
2023-04-19T21:08:09.462Z,80.70
2023-04-19T21:10:37.189Z,80.50
2023-04-19T21:13:04.953Z,80.60
2023-04-19T21:15:32.827Z,80.90
2023-04-19T21:18:00.398Z,80.90
2023-04-19T21:20:28.126Z,81.10
2023-04-19T21:22:55.535Z,81.70
2023-04-19T21:25:23.034Z,82.40
2023-04-19T21:27:50.410Z,80.90
2023-04-19T21:30:18.288Z,81.40
2023-04-19T21:32:46.094Z,82.60
2023-04-19T21:35:13.478Z,81.30
2023-04-19T21:37:40.902Z,81.50
2023-04-19T21:40:09.076Z,81.80
2023-04-19T21:42:36.627Z,82.20
2023-04-19T21:45:05.079Z,82.00
2023-04-19T21:47:32.665Z,82.30
2023-04-19T21:50:00.456Z,82.50
2023-04-19T21:52:27.901Z,82.50
2023-04-19T21:54:55.350Z,82.40
2023-04-19T21:57:24.721Z,82.60
2023-04-19T21:59:52.148Z,82.90
2023-04-19T22:02:20.118Z,82.80
2023-04-19T22:04:47.633Z,83.00
2023-04-19T22:07:17.968Z,83.30
2023-04-19T22:09:46.466Z,83.60
2023-04-19T22:12:13.896Z,83.50
2023-04-19T22:14:41.343Z,83.80
2023-04-19T22:17:09.112Z,83.90
2023-04-19T22:19:36.779Z,83.80
2023-04-19T22:22:04.152Z,84.10
2023-04-19T22:24:31.641Z,84.50
2023-04-19T22:26:59.075Z,84.40
2023-04-19T22:29:26.495Z,85.10
2023-04-19T22:31:53.968Z,85.10
2023-04-19T22:34:21.470Z,85.30
2023-04-19T22:36:48.874Z,85.20
2023-04-19T22:39:17.437Z,86.00
2023-04-19T22:41:45.616Z,85.90
2023-04-19T22:44:13.201Z,86.50
2023-04-19T22:46:40.646Z,85.80
2023-04-19T22:49:10.183Z,86.20
2023-04-19T22:51:38.379Z,86.10
2023-04-19T22:54:05.789Z,86.70
2023-04-19T22:56:33.289Z,87.50
2023-04-19T22:59:00.775Z,87.90
2023-04-19T23:01:28.184Z,87.70
2023-04-19T23:03:55.654Z,88.10
2023-04-19T23:06:23.625Z,88.70
2023-04-19T23:08:52.065Z,89.00
2023-04-19T23:11:19.559Z,88.70
2023-04-19T23:13:47.498Z,89.40
2023-04-19T23:16:15.042Z,89.60
2023-04-19T23:18:42.576Z,89.90
2023-04-19T23:21:10.378Z,90.00
2023-04-19T23:23:39.034Z,90.20
2023-04-19T23:26:06.452Z,90.40
2023-04-19T23:28:33.973Z,90.70
2023-04-19T23:31:01.458Z,91.00
2023-04-19T23:33:28.880Z,91.20
2023-04-19T23:35:56.244Z,91.30
2023-04-19T23:38:23.653Z,91.50
2023-04-19T23:40:53.318Z,91.80
2023-04-19T23:43:20.759Z,92.00
2023-04-19T23:45:48.200Z,92.10
2023-04-19T23:48:15.743Z,92.40
2023-04-19T23:50:44.790Z,92.60
2023-04-19T23:53:12.302Z,92.80
2023-04-19T23:55:39.624Z,93.00
2023-04-19T23:58:07.147Z,93.40
